Time;durP1;ratioP1;P1;durP2;ratioP2;P2;SDS_P1;SDS_P2;PMS_P1;PMS_P2;Temp;Humidity;BMP_temperature;BMP_pressure;BME280_temperature;BME280_humidity;BME280_pressure;Samples;Min_cycle;Max_cycle;Signal;HPM_P1;HPM_P2
2022/11/17 00:00:23;;;;;;;38.80;23.00;;;;;;;9.69;100.00;93300.75;5070650;28;20650;-62
2022/11/17 00:02:49;;;;;;;29.40;19.13;;;;;;;9.54;100.00;93297.22;5070734;28;20276;-63
2022/11/17 00:05:14;;;;;;;34.53;20.77;;;;;;;9.58;100.00;93291.69;5070831;28;20220;-62
2022/11/17 00:07:41;;;;;;;31.17;20.07;;;;;;;9.89;100.00;93267.28;5070557;28;20196;-59
2022/11/17 00:10:08;;;;;;;32.77;19.77;;;;;;;9.69;100.00;93267.75;5070459;28;20262;-60
2022/11/17 00:15:17;;;;;;;32.27;20.23;;;;;;;9.61;100.00;93252.53;5070617;28;20219;-61
2022/11/17 00:17:44;;;;;;;29.70;18.40;;;;;;;9.50;100.00;93271.41;5070396;28;20184;-61
2022/11/17 00:22:54;;;;;;;29.70;18.93;;;;;;;9.93;100.00;93258.41;5073746;28;20220;-63
2022/11/17 00:25:20;;;;;;;33.17;19.03;;;;;;;9.83;100.00;93262.06;5074024;28;20216;-62
2022/11/17 00:27:45;;;;;;;39.70;20.90;;;;;;;9.58;100.00;93276.47;5073974;28;20652;-58
2022/11/17 00:34:03;;;;;;;29.80;18.20;;;;;;;9.75;100.00;93259.53;5074018;28;20373;-58
2022/11/17 00:35:49;;;;;;;27.33;18.40;;;;;;;9.59;100.00;93249.38;5073897;28;20246;-61
2022/11/17 00:38:15;;;;;;;28.27;17.37;;;;;;;9.42;100.00;93268.06;5074143;28;20536;-62
2022/11/17 00:40:40;;;;;;;30.07;17.37;;;;;;;9.48;100.00;93245.41;5073635;28;20277;-58
2022/11/17 00:43:06;;;;;;;26.20;17.23;;;;;;;9.67;100.00;93262.84;5073630;28;20683;-61
2022/11/17 00:45:31;;;;;;;33.40;18.43;;;;;;;9.37;100.00;93288.84;5055609;28;20212;-62
2022/11/17 00:47:56;;;;;;;27.17;17.30;;;;;;;9.48;100.00;93270.75;5073624;28;20424;-59
2022/11/17 00:50:23;;;;;;;25.23;17.83;;;;;;;9.37;100.00;93239.84;5073844;28;20224;-59
2022/11/17 00:52:48;;;;;;;26.53;15.77;;;;;;;9.67;100.00;93254.44;5055738;28;20694;-62
2022/11/17 00:55:13;;;;;;;29.13;17.73;;;;;;;9.60;100.00;93250.94;5073310;28;20335;-61
2022/11/17 00:57:39;;;;;;;29.07;18.27;;;;;;;9.46;100.00;93233.81;5055864;28;20201;-59
2022/11/17 01:00:05;;;;;;;26.27;16.20;;;;;;;9.50;100.00;93230.03;5073439;28;20223;-59
2022/11/17 01:02:30;;;;;;;23.90;15.93;;;;;;;9.69;100.00;93240.66;5073483;28;20185;-64
2022/11/17 01:04:56;;;;;;;23.33;15.53;;;;;;;9.64;100.00;93235.25;5073287;28;20212;-62
2022/11/17 01:07:21;;;;;;;24.17;15.33;;;;;;;9.49;100.00;93221.63;5073319;28;20268;-60
2022/11/17 01:09:46;;;;;;;22.30;14.17;;;;;;;9.76;100.00;93208.59;5073065;28;20216;-59
2022/11/17 01:12:12;;;;;;;20.97;13.83;;;;;;;9.74;100.00;93240.16;5073283;28;20191;-61
2022/11/17 01:14:37;;;;;;;27.80;16.00;;;;;;;9.56;100.00;93240.31;5073017;28;20212;-59
2022/11/17 01:17:03;;;;;;;24.20;15.13;;;;;;;9.55;100.00;93236.22;5073173;28;20232;-62
2022/11/17 01:19:29;;;;;;;23.97;14.43;;;;;;;9.58;100.00;93212.25;5073178;28;20253;-60
2022/11/17 01:21:54;;;;;;;21.87;13.73;;;;;;;9.50;100.00;93225.75;5073314;28;20766;-59
2022/11/17 01:24:19;;;;;;;21.87;13.17;;;;;;;9.82;100.00;93222.38;5080392;22;20312;-63
2022/11/17 01:26:45;;;;;;;19.03;11.90;;;;;;;9.84;100.00;93221.28;5073121;28;20228;-59
2022/11/17 01:29:18;;;;;;;23.17;13.23;;;;;;;9.62;100.00;93229.53;5072733;28;20213;-61
2022/11/17 01:31:44;;;;;;;21.67;13.77;;;;;;;9.56;100.00;93214.97;5072923;28;20330;-60
2022/11/17 01:34:11;;;;;;;20.80;13.23;;;;;;;9.74;100.00;93223.19;5071985;28;20232;-58
2022/11/17 01:39:19;;;;;;;21.40;14.13;;;;;;;9.74;100.00;93218.13;5080490;22;20217;-63
2022/11/17 01:41:44;;;;;;;22.10;13.90;;;;;;;9.64;100.00;93229.38;5072758;28;20377;-63
2022/11/17 01:44:34;;;;;;;22.23;14.27;;;;;;;9.62;100.00;93227.00;5072732;28;20196;-58
2022/11/17 01:47:01;;;;;;;23.97;14.27;;;;;;;9.89;100.00;93198.75;5072674;28;20635;-59
2022/11/17 01:49:28;;;;;;;22.43;13.70;;;;;;;9.79;100.00;93218.44;5080123;22;20224;-60
2022/11/17 01:52:03;;;;;;;27.97;14.80;;;;;;;9.50;100.00;93220.66;5072662;28;20250;-60
2022/11/17 01:54:30;;;;;;;20.53;14.03;;;;;;;9.78;100.00;93194.00;5054392;28;20319;-61
2022/11/17 01:56:59;;;;;;;23.40;13.60;;;;;;;9.68;100.00;93213.69;5072542;28;20188;-61
2022/11/17 01:59:37;;;;;;;23.53;15.27;;;;;;;9.69;100.00;93201.81;5072545;28;20270;-64
2022/11/17 02:02:03;;;;;;;23.90;14.70;;;;;;;9.83;100.00;93201.94;5072632;28;20597;-62
2022/11/17 02:04:32;;;;;;;21.63;13.83;;;;;;;9.95;100.00;93193.03;5072330;28;20646;-62
2022/11/17 02:07:14;;;;;;;23.00;14.10;;;;;;;9.69;100.00;93214.50;5072336;28;20189;-61
2022/11/17 02:09:41;;;;;;;21.70;14.70;;;;;;;9.86;100.00;93199.06;5072129;28;20274;-60
2022/11/17 02:12:10;;;;;;;19.77;12.90;;;;;;;10.06;100.00;93185.06;5072243;28;20251;-62
2022/11/17 02:14:37;;;;;;;23.37;12.53;;;;;;;10.01;100.00;93194.13;5071986;28;20759;-59
2022/11/17 02:17:05;;;;;;;20.73;13.73;;;;;;;9.98;100.00;93191.91;5072081;28;20177;-63
2022/11/17 02:19:36;;;;;;;22.43;14.03;;;;;;;9.71;100.00;93188.00;5072297;28;20674;-60
2022/11/17 02:22:29;;;;;;;23.13;14.07;;;;;;;9.71;100.00;93177.88;5054522;28;20181;-62
2022/11/17 02:25:13;;;;;;;19.60;13.77;;;;;;;10.02;100.00;93176.19;5072133;28;20212;-61
2022/11/17 02:27:44;;;;;;;23.10;13.27;;;;;;;9.80;100.00;93181.16;5072257;28;20240;-61
2022/11/17 02:30:14;;;;;;;20.37;13.90;;;;;;;9.56;100.00;93194.66;5071841;28;20206;-61
2022/11/17 02:33:04;;;;;;;22.60;14.70;;;;;;;9.49;100.00;93162.50;5072028;28;20287;-60
2022/11/17 02:35:40;;;;;;;19.93;13.87;;;;;;;9.91;100.00;93184.16;5053820;28;20213;-61
2022/11/17 02:38:19;;;;;;;19.83;14.17;;;;;;;9.71;100.00;93190.53;5054191;28;20211;-59
2022/11/17 02:41:23;;;;;;;22.07;14.87;;;;;;;9.56;100.00;93181.19;5071868;28;20221;-61
2022/11/17 02:44:04;;;;;;;20.43;12.73;;;;;;;9.56;100.00;93168.50;5023772;28;20215;-60
2022/11/17 02:46:53;;;;;;;29.63;13.03;;;;;;;9.77;100.00;93176.41;5071804;28;20184;-63
2022/11/17 02:49:28;;;;;;;21.67;12.50;;;;;;;9.66;100.00;93177.53;5053905;28;20217;-60
2022/11/17 02:51:57;;;;;;;19.43;11.87;;;;;;;9.93;100.00;93154.34;5071801;28;20328;-61
2022/11/17 02:54:26;;;;;;;21.07;12.07;;;;;;;9.97;100.00;93172.56;5071370;28;20286;-60
2022/11/17 02:56:51;;;;;;;19.30;11.87;;;;;;;9.68;100.00;93167.22;5071644;28;20192;-58
2022/11/17 02:59:22;;;;;;;18.20;10.70;;;;;;;9.66;100.00;93142.03;5071453;28;20197;-59
2022/11/17 03:01:50;;;;;;;18.77;10.77;;;;;;;9.66;100.00;93134.41;5071533;28;20218;-59
2022/11/17 03:04:42;;;;;;;16.57;10.73;;;;;;;9.98;100.00;93174.94;5071512;28;20219;-61
2022/11/17 03:07:26;;;;;;;16.40;10.07;;;;;;;9.81;100.00;93168.31;5033965;28;20209;-62
2022/11/17 03:10:01;;;;;;;14.43;10.33;;;;;;;9.77;100.00;93182.28;5071608;28;20634;-60
2022/11/17 03:12:35;;;;;;;18.77;10.97;;;;;;;9.79;100.00;93167.69;5071585;28;20193;-59
2022/11/17 03:15:15;;;;;;;20.97;11.87;;;;;;;9.96;100.00;93169.22;5071569;28;20209;-64
2022/11/17 03:17:57;;;;;;;17.87;10.47;;;;;;;10.02;100.00;93173.66;5071333;28;20211;-61
2022/11/17 03:20:27;;;;;;;17.80;10.87;;;;;;;10.08;100.00;93165.38;5071546;28;20299;-59
2022/11/17 03:23:00;;;;;;;15.93;10.50;;;;;;;10.12;100.00;93156.53;5071456;28;20650;-59
2022/11/17 03:25:29;;;;;;;19.50;11.63;;;;;;;9.98;100.00;93153.84;5053189;28;20251;-60
2022/11/17 03:28:01;;;;;;;15.83;10.63;;;;;;;10.14;100.00;93180.00;5071464;28;20297;-61
2022/11/17 03:30:28;;;;;;;19.40;11.40;;;;;;;10.12;100.00;93146.38;5071319;28;20209;-63
2022/11/17 03:33:01;;;;;;;14.60;9.80;;;;;;;10.28;100.00;93142.19;5053148;28;20267;-63
2022/11/17 03:35:31;;;;;;;16.80;11.07;;;;;;;10.19;100.00;93160.94;5071039;28;20217;-63
2022/11/17 03:38:03;;;;;;;18.23;12.50;;;;;;;10.00;100.00;93159.53;5071576;28;20655;-60
2022/11/17 03:40:31;;;;;;;19.53;12.53;;;;;;;9.86;100.00;93157.66;5052857;28;20212;-61
2022/11/17 03:43:01;;;;;;;17.30;11.80;;;;;;;10.02;100.00;93160.97;5036855;28;20196;-63
2022/11/17 03:45:29;;;;;;;18.03;12.93;;;;;;;9.91;100.00;93189.25;5070799;28;20209;-60
2022/11/17 03:48:42;;;;;;;18.83;11.83;;;;;;;9.83;100.00;93171.50;5070976;28;20279;-60
2022/11/17 03:51:18;;;;;;;17.27;11.80;;;;;;;9.86;100.00;93183.03;5009385;28;20231;-61
2022/11/17 03:53:45;;;;;;;23.00;13.47;;;;;;;9.90;100.00;93169.06;5071061;28;20252;-63
2022/11/17 03:56:21;;;;;;;21.43;13.37;;;;;;;9.82;100.00;93180.06;5070223;28;20271;-63
2022/11/17 03:59:26;;;;;;;24.93;13.90;;;;;;;9.74;100.00;93158.97;5070991;28;20199;-59
2022/11/17 04:01:51;;;;;;;21.33;13.03;;;;;;;9.71;100.00;93132.19;5046813;28;20240;-58
2022/11/17 04:04:19;;;;;;;21.07;12.83;;;;;;;9.80;100.00;93160.84;5070799;28;20701;-60
2022/11/17 04:06:46;;;;;;;23.93;13.40;;;;;;;9.99;100.00;93165.59;5070634;28;20188;-61
2022/11/17 04:09:11;;;;;;;23.33;13.10;;;;;;;10.72;100.00;93122.91;5070448;28;20244;-60
2022/11/17 04:17:05;;;;;;;20.33;13.97;;;;;;;10.41;100.00;93148.31;5070718;28;20230;-66
2022/11/17 04:19:30;;;;;;;21.80;14.53;;;;;;;10.16;100.00;93164.59;5052799;28;20335;-62
2022/11/17 04:21:55;;;;;;;21.23;12.87;;;;;;;10.42;100.00;93127.06;5070511;28;20195;-62
2022/11/17 04:24:21;;;;;;;21.07;12.97;;;;;;;9.86;100.00;93161.00;5070502;28;20232;-58
2022/11/17 04:29:30;;;;;;;20.80;13.13;;;;;;;9.81;100.00;93109.97;5070376;28;20242;-66
2022/11/17 04:31:55;;;;;;;18.97;12.83;;;;;;;10.02;100.00;93153.34;5070384;28;20184;-61
2022/11/17 04:34:21;;;;;;;18.63;12.87;;;;;;;9.79;100.00;93100.94;5070150;28;20296;-62
2022/11/17 04:36:46;;;;;;;18.33;11.47;;;;;;;9.94;100.00;93133.06;5070260;28;20230;-62
2022/11/17 04:39:14;;;;;;;18.43;11.93;;;;;;;10.04;100.00;93118.44;5070248;28;20583;-61
2022/11/17 04:41:53;;;;;;;18.43;12.57;;;;;;;9.81;100.00;93111.69;5070358;28;20189;-61
2022/11/17 04:44:21;;;;;;;20.03;12.07;;;;;;;9.66;100.00;93139.47;5070423;28;20220;-67
2022/11/17 04:46:47;;;;;;;18.63;11.97;;;;;;;9.85;100.00;93108.69;5070336;28;20215;-65
2022/11/17 04:49:14;;;;;;;16.80;12.17;;;;;;;10.00;100.00;93119.72;5052178;28;20221;-61
2022/11/17 04:51:41;;;;;;;16.80;11.80;;;;;;;9.74;100.00;93124.25;5070112;28;20199;-64
2022/11/17 04:54:08;;;;;;;19.87;13.00;;;;;;;9.75;100.00;93097.94;5070133;28;20240;-65
2022/11/17 04:56:33;;;;;;;20.30;12.70;;;;;;;9.60;100.00;93121.56;5070066;28;20302;-64
2022/11/17 04:58:59;;;;;;;18.33;12.60;;;;;;;9.71;100.00;93113.63;5052205;28;20336;-65
2022/11/17 05:01:26;;;;;;;22.40;13.97;;;;;;;9.64;100.00;93116.03;5070345;28;20189;-61
2022/11/17 05:03:57;;;;;;;20.77;12.57;;;;;;;10.01;100.00;93111.16;5052120;28;20188;-60
2022/11/17 05:06:37;;;;;;;20.33;13.27;;;;;;;10.23;100.00;93104.59;5070092;28;20185;-64
2022/11/17 05:09:11;;;;;;;20.07;12.53;;;;;;;10.21;100.00;93100.63;5079474;22;20247;-61
2022/11/17 05:14:23;;;;;;;18.20;12.53;;;;;;;10.09;100.00;93111.13;5073300;28;20298;-60
2022/11/17 05:17:05;;;;;;;19.57;13.27;;;;;;;9.86;100.00;93074.72;5073383;28;20224;-61
2022/11/17 05:19:36;;;;;;;19.53;13.87;;;;;;;10.20;100.00;93093.97;5073465;28;20209;-59
2022/11/17 05:22:02;;;;;;;22.23;13.57;;;;;;;9.83;100.00;93077.59;5073347;28;20189;-63
2022/11/17 05:24:28;;;;;;;22.90;12.97;;;;;;;10.15;100.00;93099.56;5055039;28;20299;-61
2022/11/17 05:26:54;;;;;;;21.07;13.60;;;;;;;10.30;100.00;93090.28;5055353;28;20663;-66
2022/11/17 05:29:21;;;;;;;20.33;13.47;;;;;;;10.19;100.00;93079.69;5073479;28;20561;-65
2022/11/17 05:31:47;;;;;;;22.53;13.40;;;;;;;9.90;100.00;93098.81;5054931;28;20275;-62
2022/11/17 05:34:16;;;;;;;22.17;13.27;;;;;;;9.91;100.00;93067.41;5054699;28;20292;-60
2022/11/17 05:36:42;;;;;;;21.43;14.37;;;;;;;10.27;100.00;93049.19;5073108;28;20193;-60
2022/11/17 05:39:08;;;;;;;23.77;13.23;;;;;;;10.29;100.00;93052.34;5072893;28;20293;-62
2022/11/17 05:41:35;;;;;;;17.50;12.23;;;;;;;9.88;100.00;93057.59;5072996;28;20205;-65
2022/11/17 05:44:01;;;;;;;19.87;13.13;;;;;;;10.04;100.00;93082.91;5054763;28;20204;-65
2022/11/17 05:46:26;;;;;;;18.37;13.70;;;;;;;10.02;100.00;93089.88;5072857;28;20193;-61
2022/11/17 05:48:52;;;;;;;19.60;13.00;;;;;;;10.39;100.00;93081.66;5072841;28;20208;-60
2022/11/17 05:51:20;;;;;;;21.43;13.17;;;;;;;10.39;100.00;93083.41;5054932;28;20311;-68
2022/11/17 05:53:46;;;;;;;22.10;13.93;;;;;;;10.07;100.00;93117.31;5054580;28;20222;-61
2022/11/17 05:56:32;;;;;;;20.83;14.97;;;;;;;9.88;100.00;93093.13;5072827;28;20181;-66
2022/11/17 05:59:13;;;;;;;22.60;14.03;;;;;;;10.39;100.00;93073.22;5072832;28;20215;-66
2022/11/17 06:01:44;;;;;;;20.57;12.80;;;;;;;11.15;100.00;93099.38;5054470;28;20287;-66
2022/11/17 06:04:20;;;;;;;35.97;21.43;;;;;;;10.28;100.00;93125.19;5072419;28;20204;-61
2022/11/17 06:06:46;;;;;;;26.80;17.10;;;;;;;10.16;100.00;93093.50;5072500;28;20754;-65
2022/11/17 06:09:12;;;;;;;25.37;15.80;;;;;;;10.20;100.00;93045.75;5072558;28;20204;-65
2022/11/17 06:11:37;;;;;;;24.70;15.97;;;;;;;10.16;100.00;93100.34;5085082;22;20221;-63
2022/11/17 06:14:02;;;;;;;25.13;16.07;;;;;;;9.94;100.00;93127.19;5079750;22;20232;-61
2022/11/17 06:16:33;;;;;;;21.77;14.67;;;;;;;10.18;100.00;93053.50;5072598;28;20189;-65
2022/11/17 06:19:05;;;;;;;27.37;16.33;;;;;;;10.02;100.00;93112.72;5072742;28;20709;-66
2022/11/17 06:21:31;;;;;;;25.70;16.07;;;;;;;9.87;100.00;93100.91;5072680;28;20598;-61
2022/11/17 06:23:57;;;;;;;20.27;14.20;;;;;;;10.00;100.00;93129.06;5072838;28;20197;-61
2022/11/17 06:26:22;;;;;;;20.47;12.00;;;;;;;9.85;100.00;93143.41;5072269;28;20181;-62
2022/11/17 06:28:49;;;;;;;20.93;12.50;;;;;;;10.12;100.00;93120.97;5072456;28;20579;-61
2022/11/17 06:31:15;;;;;;;24.60;14.10;;;;;;;10.05;100.00;93131.94;5072341;28;20185;-65
2022/11/17 06:33:42;;;;;;;23.93;16.03;;;;;;;9.94;100.00;93167.81;5072310;28;20217;-61
2022/11/17 06:36:08;;;;;;;24.10;14.87;;;;;;;10.12;100.00;93151.44;5072414;28;20200;-62
2022/11/17 06:38:35;;;;;;;21.33;13.33;;;;;;;10.06;100.00;93179.19;5072245;28;20219;-65
2022/11/17 06:41:02;;;;;;;21.43;13.60;;;;;;;10.05;100.00;93197.94;5072187;28;20574;-64
2022/11/17 06:43:27;;;;;;;22.20;13.00;;;;;;;10.05;100.00;93195.41;5054359;28;20196;-61
2022/11/17 06:45:52;;;;;;;18.60;12.17;;;;;;;10.06;100.00;93217.28;5072103;28;20675;-65
2022/11/17 06:48:25;;;;;;;16.00;10.17;;;;;;;9.94;100.00;93214.28;5072327;28;20201;-66
2022/11/17 06:50:52;;;;;;;19.53;10.60;;;;;;;10.16;100.00;93227.31;5071954;28;20288;-60
2022/11/17 06:53:17;;;;;;;16.77;10.10;;;;;;;10.30;100.00;93241.88;5071893;28;20208;-60
2022/11/17 06:55:48;;;;;;;17.40;10.70;;;;;;;10.13;100.00;93249.53;5071951;28;20209;-65
2022/11/17 06:58:13;;;;;;;17.97;10.73;;;;;;;10.16;100.00;93260.31;5071957;28;20208;-61
2022/11/17 07:00:39;;;;;;;21.00;11.97;;;;;;;10.25;100.00;93282.19;5071705;28;20224;-62
2022/11/17 07:03:07;;;;;;;19.40;12.17;;;;;;;10.12;100.00;93325.81;5071960;28;20500;-62
2022/11/17 07:05:34;;;;;;;22.77;12.03;;;;;;;10.06;100.00;93329.78;5071683;28;20201;-64
2022/11/17 07:08:03;;;;;;;15.27;9.23;;;;;;;10.26;100.00;93326.94;5072069;28;20181;-61
2022/11/17 07:10:29;;;;;;;20.13;11.90;;;;;;;10.26;100.00;93321.88;5071533;28;20209;-61
2022/11/17 07:12:55;;;;;;;17.27;11.40;;;;;;;10.26;100.00;93294.69;5071337;28;20193;-61
2022/11/17 07:15:21;;;;;;;19.27;12.07;;;;;;;10.50;100.00;93292.16;5071340;28;20657;-62
2022/11/17 07:17:47;;;;;;;9.23;6.70;;;;;;;10.37;100.00;93273.25;5071615;28;20188;-64
2022/11/17 07:20:12;;;;;;;11.70;8.57;;;;;;;10.57;100.00;93262.56;5071528;28;20204;-61
2022/11/17 07:22:39;;;;;;;9.27;6.73;;;;;;;10.72;100.00;93252.53;5071550;28;20543;-64
2022/11/17 07:25:05;;;;;;;8.33;5.97;;;;;;;10.81;100.00;93218.47;5070096;28;20219;-64
2022/11/17 07:27:31;;;;;;;7.90;6.03;;;;;;;10.91;100.00;93219.06;5071281;28;20193;-60
2022/11/17 07:29:56;;;;;;;11.13;5.77;;;;;;;10.86;100.00;93203.53;5071389;28;20204;-64
2022/11/17 07:32:22;;;;;;;11.27;5.47;;;;;;;11.06;100.00;93186.88;5052595;28;20196;-61
2022/11/17 07:34:48;;;;;;;10.03;6.27;;;;;;;11.13;100.00;93176.84;5078475;22;20768;-65
2022/11/17 07:37:13;;;;;;;10.77;6.47;;;;;;;11.16;100.00;93159.47;5071277;28;20271;-64
2022/11/17 07:39:38;;;;;;;8.27;5.27;;;;;;;11.11;100.00;93131.22;5071467;28;20228;-63
2022/11/17 07:42:04;;;;;;;9.40;6.30;;;;;;;11.01;100.00;93128.09;5053174;28;20271;-62
2022/11/17 07:44:30;;;;;;;2.60;1.90;;;;;;;10.82;100.00;93156.53;5071146;28;20246;-64
2022/11/17 07:46:56;;;;;;;9.10;3.60;;;;;;;10.93;100.00;93149.28;5071094;28;20619;-63
2022/11/17 07:49:21;;;;;;;7.87;5.63;;;;;;;11.05;100.00;93139.50;5070844;28;20284;-61
2022/11/17 07:51:47;;;;;;;10.47;7.10;;;;;;;10.97;100.00;93137.81;5070893;28;20242;-63
2022/11/17 07:54:12;;;;;;;10.53;6.43;;;;;;;10.92;100.00;93124.06;5070823;28;20240;-64
2022/11/17 07:56:37;;;;;;;9.30;6.70;;;;;;;10.81;100.00;93109.19;5070823;28;20233;-64
2022/11/17 07:59:03;;;;;;;6.50;5.20;;;;;;;10.76;100.00;93108.91;5070790;28;20211;-65
2022/11/17 08:01:28;;;;;;;9.80;5.60;;;;;;;10.80;100.00;93131.28;5069587;28;20193;-66
2022/11/17 08:03:54;;;;;;;7.17;5.13;;;;;;;11.10;100.00;93152.53;5069385;28;20238;-64
2022/11/17 08:06:19;;;;;;;8.17;5.17;;;;;;;11.34;100.00;93161.72;5069498;28;20535;-63
2022/11/17 08:08:47;;;;;;;9.77;5.77;;;;;;;11.24;100.00;93174.69;5052537;28;20591;-61
2022/11/17 08:11:12;;;;;;;7.97;5.10;;;;;;;11.31;100.00;93175.56;5052526;28;20189;-61
2022/11/17 08:13:39;;;;;;;7.40;5.10;;;;;;;11.49;100.00;93175.28;5070509;28;20235;-63
2022/11/17 08:16:06;;;;;;;11.57;7.40;;;;;;;11.43;100.00;93179.28;5070661;28;20280;-61
2022/11/17 08:18:32;;;;;;;13.00;8.33;;;;;;;11.44;100.00;93191.06;5070690;28;20201;-65
2022/11/17 08:21:15;;;;;;;12.53;7.63;;;;;;;11.21;100.00;93195.34;5070556;28;20247;-62
2022/11/17 08:23:41;;;;;;;12.27;8.23;;;;;;;11.24;100.00;93199.31;5069177;28;20196;-64
2022/11/17 08:26:08;;;;;;;12.33;7.83;;;;;;;11.35;100.00;93209.88;5070808;28;20239;-61
2022/11/17 08:28:34;;;;;;;10.83;7.33;;;;;;;11.24;100.00;93223.00;5052407;28;20193;-64
2022/11/17 08:31:01;;;;;;;11.27;6.67;;;;;;;11.47;100.00;93220.47;5070753;28;20212;-64
2022/11/17 08:33:27;;;;;;;14.23;7.17;;;;;;;11.54;100.00;93214.50;5070348;28;20217;-59
2022/11/17 08:35:57;;;;;;;13.33;8.20;;;;;;;11.50;100.00;93222.66;5070231;28;20207;-61
2022/11/17 08:38:27;;;;;;;12.30;8.23;;;;;;;11.56;100.00;93229.59;5070441;28;20223;-61
2022/11/17 08:40:54;;;;;;;15.57;8.20;;;;;;;11.60;100.00;93236.75;5070411;28;20248;-60
2022/11/17 08:43:19;;;;;;;16.40;9.07;;;;;;;11.58;100.00;93238.66;5072710;28;20660;-65
2022/11/17 08:45:44;;;;;;;10.47;6.47;;;;;;;11.49;100.00;93241.44;5073738;28;20219;-63
2022/11/17 08:48:10;;;;;;;10.20;6.60;;;;;;;11.49;100.00;93229.50;5055787;28;20216;-62
2022/11/17 08:50:35;;;;;;;13.90;7.83;;;;;;;11.63;100.00;93254.22;5074159;28;20587;-64
2022/11/17 08:53:00;;;;;;;12.27;8.37;;;;;;;11.55;100.00;93256.03;5073506;28;20275;-64
2022/11/17 08:55:26;;;;;;;10.83;7.60;;;;;;;11.59;100.00;93239.47;5073891;28;20220;-62
2022/11/17 08:57:52;;;;;;;9.13;6.77;;;;;;;11.77;100.00;93242.53;5073486;28;20299;-61
2022/11/17 09:00:19;;;;;;;13.50;7.97;;;;;;;11.80;100.00;93240.44;5073506;28;20686;-62
2022/11/17 09:02:45;;;;;;;12.73;8.07;;;;;;;11.72;100.00;93230.31;5055564;28;20683;-62
2022/11/17 09:05:10;;;;;;;13.20;9.47;;;;;;;11.84;100.00;93229.91;5073377;28;20208;-64
2022/11/17 09:10:19;;;;;;;13.73;8.20;;;;;;;11.98;100.00;93231.69;5073798;28;20255;-64
2022/11/17 09:12:45;;;;;;;14.27;8.97;;;;;;;12.03;100.00;93252.31;5073575;28;20204;-60
2022/11/17 09:15:11;;;;;;;13.20;8.23;;;;;;;12.12;100.00;93253.84;5073467;28;20307;-65
2022/11/17 09:17:36;;;;;;;13.77;7.20;;;;;;;12.13;100.00;93233.28;5073267;28;20627;-63
2022/11/17 09:20:02;;;;;;;14.73;8.00;;;;;;;12.26;100.00;93245.44;5073481;28;20289;-63
2022/11/17 09:22:27;;;;;;;14.30;8.13;;;;;;;12.23;100.00;93238.13;5073258;28;20570;-65
2022/11/17 09:24:52;;;;;;;18.50;8.67;;;;;;;12.14;100.00;93218.81;5073373;28;20220;-64
2022/11/17 09:27:18;;;;;;;15.47;8.77;;;;;;;12.19;100.00;93222.41;5073306;28;20291;-64
2022/11/17 09:29:43;;;;;;;11.77;8.53;;;;;;;12.24;100.00;93225.19;5073224;28;20825;-60
2022/11/17 09:32:09;;;;;;;13.10;7.27;;;;;;;12.28;100.00;93235.84;5073239;28;20711;-65
2022/11/17 09:34:34;;;;;;;13.97;8.73;;;;;;;12.31;100.00;93228.66;5072990;28;20701;-61
2022/11/17 09:37:00;;;;;;;13.70;8.63;;;;;;;12.31;100.00;93233.75;5073021;28;20189;-59
2022/11/17 09:39:25;;;;;;;14.27;9.40;;;;;;;12.28;100.00;93231.53;5073156;28;20251;-60
2022/11/17 09:41:53;;;;;;;12.37;9.50;;;;;;;12.15;100.00;93218.63;5072833;28;20192;-60
2022/11/17 09:44:31;;;;;;;12.47;8.03;;;;;;;12.09;100.00;93223.63;5073196;28;20677;-64
2022/11/17 09:47:18;;;;;;;11.73;8.20;;;;;;;12.20;100.00;93218.09;5059053;23;20232;-66
2022/11/17 09:49:53;;;;;;;11.97;7.27;;;;;;;12.29;100.00;93235.69;5035010;28;20220;-65
2022/11/17 09:52:44;;;;;;;11.63;6.67;;;;;;;12.54;100.00;93239.53;5052716;28;20693;-64
2022/11/17 09:55:12;;;;;;;8.97;6.33;;;;;;;12.49;100.00;93225.75;5051886;28;20649;-65
2022/11/17 09:57:46;;;;;;;10.47;7.40;;;;;;;12.54;100.00;93234.44;5052733;28;20292;-60
2022/11/17 10:00:15;;;;;;;9.60;6.13;;;;;;;12.59;100.00;93233.91;5052777;28;20221;-61
2022/11/17 10:02:42;;;;;;;9.20;6.57;;;;;;;12.71;100.00;93236.78;5052579;28;20190;-64
2022/11/17 10:05:14;;;;;;;9.57;6.30;;;;;;;12.78;100.00;93227.47;5052626;28;20216;-65
2022/11/17 10:07:46;;;;;;;9.13;6.73;;;;;;;12.88;100.00;93226.25;5018410;28;20297;-66
2022/11/17 10:10:17;;;;;;;9.07;6.23;;;;;;;12.77;100.00;93219.03;5052549;28;20654;-65
2022/11/17 10:12:49;;;;;;;9.97;6.10;;;;;;;12.87;100.00;93228.94;5052632;28;20190;-64
2022/11/17 10:15:21;;;;;;;8.10;6.00;;;;;;;13.01;100.00;93240.91;5052428;28;20221;-60
2022/11/17 10:17:47;;;;;;;10.82;5.97;;;;;;;13.12;100.00;93255.78;5052580;28;20193;-60
2022/11/17 10:20:17;;;;;;;8.77;5.47;;;;;;;13.16;100.00;93249.34;5052298;28;20214;-60
2022/11/17 10:22:45;;;;;;;7.55;5.50;;;;;;;13.14;100.00;93238.53;5052517;28;20193;-60
2022/11/17 10:25:35;;;;;;;6.70;5.30;;;;;;;13.08;100.00;93227.28;5052144;28;20242;-60
2022/11/17 10:28:01;;;;;;;7.77;6.03;;;;;;;13.01;100.00;93203.41;5052364;28;20170;-60
2022/11/17 10:30:26;;;;;;;8.53;6.17;;;;;;;13.05;100.00;93219.97;5052262;28;20271;-60
2022/11/17 10:32:54;;;;;;;10.53;5.80;;;;;;;12.96;100.00;93218.50;5052301;28;20209;-64
2022/11/17 10:35:23;;;;;;;8.00;6.23;;;;;;;12.97;100.00;93204.75;5052160;28;20220;-64
2022/11/17 10:37:55;;;;;;;10.33;6.97;;;;;;;13.16;100.00;93208.53;5052154;28;20216;-64
2022/11/17 10:40:24;;;;;;;10.03;6.70;;;;;;;13.15;100.00;93197.50;5034173;28;20224;-65
2022/11/17 10:43:15;;;;;;;13.57;6.80;;;;;;;13.31;100.00;93194.72;5052183;28;20197;-61
2022/11/17 10:45:46;;;;;;;9.83;6.23;;;;;;;13.27;100.00;93202.94;5042485;28;20328;-64
2022/11/17 10:48:24;;;;;;;13.70;7.63;;;;;;;13.39;100.00;93214.25;5051951;28;20201;-62
2022/11/17 10:50:55;;;;;;;9.80;6.70;;;;;;;13.34;100.00;93198.69;5034086;28;20312;-65
2022/11/17 10:53:31;;;;;;;11.90;6.88;;;;;;;13.30;100.00;93188.06;5051563;28;20220;-65
2022/11/17 10:56:04;;;;;;;11.67;7.43;;;;;;;13.51;100.00;93212.81;5051816;28;20596;-64
2022/11/17 10:58:37;;;;;;;8.20;6.50;;;;;;;13.57;100.00;93249.56;5051723;28;20202;-61
2022/11/17 11:01:03;;;;;;;8.35;6.43;;;;;;;13.61;100.00;93243.94;5051963;28;20232;-62
2022/11/17 11:03:31;;;;;;;11.80;6.20;;;;;;;13.66;100.00;93245.91;5051739;28;20204;-64
2022/11/17 11:06:17;;;;;;;10.97;6.50;;;;;;;13.43;100.00;93223.91;5033899;28;20662;-60
2022/11/17 11:08:57;;;;;;;14.53;6.27;;;;;;;13.64;100.00;93229.97;5050749;28;20197;-63
2022/11/17 11:11:52;;;;;;;10.97;7.03;;;;;;;13.59;100.00;93225.44;5051424;28;20209;-64
2022/11/17 11:14:35;;;;;;;10.25;6.35;;;;;;;13.43;100.00;93206.03;5031316;28;20221;-64
2022/11/17 11:17:12;;;;;;;8.07;5.53;;;;;;;13.53;100.00;93222.81;5033539;28;20193;-64
2022/11/17 11:19:40;;;;;;;9.38;5.88;;;;;;;13.64;100.00;93241.00;5051231;28;20254;-64
2022/11/17 11:22:26;;;;;;;10.83;6.43;;;;;;;13.68;100.00;93246.50;5033809;28;20197;-66
2022/11/17 11:25:10;;;;;;;9.70;5.85;;;;;;;13.70;100.00;93230.03;5058912;22;20217;-59
2022/11/17 11:27:59;;;;;;;11.10;6.00;;;;;;;13.74;100.00;93238.13;5051277;28;20190;-63
2022/11/17 11:30:26;;;;;;;7.57;5.23;;;;;;;13.78;100.00;93262.31;5041563;28;20236;-65
2022/11/17 11:33:48;;;;;;;9.90;6.03;;;;;;;13.59;100.00;93252.72;5051211;28;20195;-60
2022/11/17 11:36:19;;;;;;;10.80;5.17;;;;;;;13.66;100.00;93240.81;4989920;28;20260;-65
2022/11/17 11:39:05;;;;;;;11.20;5.93;;;;;;;13.69;100.00;93238.69;4989702;28;20184;-63
2022/11/17 11:41:44;;;;;;;11.95;5.85;;;;;;;13.85;100.00;93258.06;5011864;28;20561;-61
2022/11/17 11:44:21;;;;;;;7.87;5.33;;;;;;;13.70;100.00;93229.25;5051111;28;20596;-61
2022/11/17 11:46:50;;;;;;;8.65;5.65;;;;;;;13.77;100.00;93232.66;5033167;28;20178;-64
2022/11/17 11:49:37;;;;;;;13.97;5.07;;;;;;;13.80;100.00;93242.50;5050875;28;20243;-63
2022/11/17 11:52:09;;;;;;;7.68;5.25;;;;;;;13.82;100.00;93235.44;5051077;28;20276;-62
2022/11/17 11:54:44;;;;;;;13.73;5.63;;;;;;;13.80;100.00;93222.06;5033037;28;20351;-63